sensor_id;sensor_type;location;lat;lon;timestamp;P1;durP1;ratioP1;P2;durP2;ratioP2
59169;SDS011;52474;52.236;5.114;2022-08-01T00:00:26;17.88;;;8.55;;
59169;SDS011;52474;52.236;5.114;2022-08-01T00:02:52;15.23;;;8.52;;
59169;SDS011;52474;52.236;5.114;2022-08-01T00:05:17;15.13;;;8.77;;
59169;SDS011;52474;52.236;5.114;2022-08-01T00:07:43;13.60;;;8.23;;
59169;SDS011;52474;52.236;5.114;2022-08-01T00:10:10;15.23;;;8.73;;
59169;SDS011;52474;52.236;5.114;2022-08-01T00:12:38;16.33;;;8.93;;
59169;SDS011;52474;52.236;5.114;2022-08-01T00:15:05;15.05;;;8.65;;
59169;SDS011;52474;52.236;5.114;2022-08-01T00:17:32;19.27;;;9.13;;
59169;SDS011;52474;52.236;5.114;2022-08-01T00:19:58;18.65;;;9.05;;
59169;SDS011;52474;52.236;5.114;2022-08-01T00:22:24;18.73;;;8.98;;
59169;SDS011;52474;52.236;5.114;2022-08-01T00:24:50;18.33;;;9.13;;
59169;SDS011;52474;52.236;5.114;2022-08-01T00:27:16;18.42;;;9.05;;
59169;SDS011;52474;52.236;5.114;2022-08-01T00:29:41;16.35;;;8.98;;
59169;SDS011;52474;52.236;5.114;2022-08-01T00:32:07;18.52;;;8.38;;
59169;SDS011;52474;52.236;5.114;2022-08-01T00:34:33;19.92;;;8.90;;
59169;SDS011;52474;52.236;5.114;2022-08-01T00:36:59;14.68;;;8.00;;
59169;SDS011;52474;52.236;5.114;2022-08-01T00:39:25;15.00;;;8.80;;
59169;SDS011;52474;52.236;5.114;2022-08-01T00:41:50;17.73;;;9.35;;
59169;SDS011;52474;52.236;5.114;2022-08-01T00:44:16;16.05;;;9.15;;
59169;SDS011;52474;52.236;5.114;2022-08-01T00:46:42;21.50;;;9.57;;
59169;SDS011;52474;52.236;5.114;2022-08-01T00:49:08;20.00;;;9.73;;
59169;SDS011;52474;52.236;5.114;2022-08-01T00:51:34;18.58;;;9.38;;
59169;SDS011;52474;52.236;5.114;2022-08-01T00:54:00;22.23;;;10.25;;
59169;SDS011;52474;52.236;5.114;2022-08-01T00:56:26;21.23;;;9.48;;
59169;SDS011;52474;52.236;5.114;2022-08-01T00:58:54;28.23;;;10.82;;
59169;SDS011;52474;52.236;5.114;2022-08-01T01:01:21;23.05;;;9.77;;
59169;SDS011;52474;52.236;5.114;2022-08-01T01:03:48;22.20;;;9.80;;
59169;SDS011;52474;52.236;5.114;2022-08-01T01:08:58;21.25;;;9.95;;
59169;SDS011;52474;52.236;5.114;2022-08-01T01:11:43;23.13;;;9.07;;
59169;SDS011;52474;52.236;5.114;2022-08-01T01:17:02;25.35;;;9.82;;
59169;SDS011;52474;52.236;5.114;2022-08-01T01:19:32;19.23;;;9.30;;
59169;SDS011;52474;52.236;5.114;2022-08-01T01:30:07;18.95;;;9.35;;
59169;SDS011;52474;52.236;5.114;2022-08-01T01:35:06;19.48;;;8.75;;
59169;SDS011;52474;52.236;5.114;2022-08-01T01:37:37;18.77;;;8.70;;
59169;SDS011;52474;52.236;5.114;2022-08-01T01:40:05;19.47;;;9.37;;
59169;SDS011;52474;52.236;5.114;2022-08-01T01:42:32;23.63;;;9.90;;
59169;SDS011;52474;52.236;5.114;2022-08-01T01:45:00;22.25;;;9.70;;
59169;SDS011;52474;52.236;5.114;2022-08-01T01:47:28;17.33;;;8.88;;
59169;SDS011;52474;52.236;5.114;2022-08-01T01:49:54;15.98;;;8.68;;
59169;SDS011;52474;52.236;5.114;2022-08-01T01:52:22;17.50;;;9.02;;
59169;SDS011;52474;52.236;5.114;2022-08-01T01:54:50;15.98;;;9.15;;
59169;SDS011;52474;52.236;5.114;2022-08-01T01:57:18;19.15;;;9.23;;
59169;SDS011;52474;52.236;5.114;2022-08-01T01:59:45;21.50;;;9.15;;
59169;SDS011;52474;52.236;5.114;2022-08-01T02:02:13;19.90;;;8.55;;
59169;SDS011;52474;52.236;5.114;2022-08-01T02:04:42;16.80;;;8.63;;
59169;SDS011;52474;52.236;5.114;2022-08-01T02:07:11;18.40;;;9.38;;
59169;SDS011;52474;52.236;5.114;2022-08-01T02:09:47;15.27;;;7.90;;
59169;SDS011;52474;52.236;5.114;2022-08-01T02:12:14;17.73;;;8.98;;
59169;SDS011;52474;52.236;5.114;2022-08-01T02:14:42;16.50;;;7.75;;
59169;SDS011;52474;52.236;5.114;2022-08-01T02:17:10;16.40;;;7.88;;
59169;SDS011;52474;52.236;5.114;2022-08-01T02:19:39;13.88;;;7.55;;
59169;SDS011;52474;52.236;5.114;2022-08-01T02:22:07;15.27;;;8.23;;
59169;SDS011;52474;52.236;5.114;2022-08-01T02:27:15;17.60;;;7.28;;
59169;SDS011;52474;52.236;5.114;2022-08-01T02:29:53;13.68;;;7.50;;
59169;SDS011;52474;52.236;5.114;2022-08-01T02:32:24;13.57;;;7.55;;
59169;SDS011;52474;52.236;5.114;2022-08-01T02:34:54;14.18;;;7.50;;
59169;SDS011;52474;52.236;5.114;2022-08-01T02:37:22;12.90;;;7.57;;
59169;SDS011;52474;52.236;5.114;2022-08-01T02:39:52;14.85;;;7.35;;
59169;SDS011;52474;52.236;5.114;2022-08-01T02:42:19;13.85;;;7.40;;
59169;SDS011;52474;52.236;5.114;2022-08-01T02:44:49;12.02;;;7.22;;
59169;SDS011;52474;52.236;5.114;2022-08-01T02:47:17;11.70;;;7.78;;
59169;SDS011;52474;52.236;5.114;2022-08-01T02:49:46;12.07;;;7.53;;
59169;SDS011;52474;52.236;5.114;2022-08-01T02:52:16;12.13;;;8.07;;
59169;SDS011;52474;52.236;5.114;2022-08-01T02:54:43;11.02;;;7.28;;
59169;SDS011;52474;52.236;5.114;2022-08-01T02:57:11;15.27;;;7.95;;
59169;SDS011;52474;52.236;5.114;2022-08-01T02:59:40;14.77;;;7.60;;
59169;SDS011;52474;52.236;5.114;2022-08-01T03:02:08;10.52;;;7.43;;
59169;SDS011;52474;52.236;5.114;2022-08-01T03:04:36;15.15;;;7.78;;
59169;SDS011;52474;52.236;5.114;2022-08-01T03:07:05;12.98;;;7.53;;
59169;SDS011;52474;52.236;5.114;2022-08-01T03:09:34;14.48;;;8.10;;
59169;SDS011;52474;52.236;5.114;2022-08-01T03:12:04;13.95;;;8.75;;
59169;SDS011;52474;52.236;5.114;2022-08-01T03:14:35;15.80;;;8.95;;
59169;SDS011;52474;52.236;5.114;2022-08-01T03:17:04;13.07;;;8.60;;
59169;SDS011;52474;52.236;5.114;2022-08-01T03:19:31;16.30;;;8.38;;
59169;SDS011;52474;52.236;5.114;2022-08-01T03:21:58;14.13;;;9.48;;
59169;SDS011;52474;52.236;5.114;2022-08-01T03:24:26;17.83;;;9.57;;
59169;SDS011;52474;52.236;5.114;2022-08-01T03:26:53;15.95;;;9.52;;
59169;SDS011;52474;52.236;5.114;2022-08-01T03:29:22;18.75;;;10.65;;
59169;SDS011;52474;52.236;5.114;2022-08-01T03:31:50;26.35;;;11.27;;
59169;SDS011;52474;52.236;5.114;2022-08-01T03:34:17;21.30;;;10.25;;
59169;SDS011;52474;52.236;5.114;2022-08-01T03:39:28;19.75;;;9.77;;
59169;SDS011;52474;52.236;5.114;2022-08-01T03:42:01;19.50;;;9.98;;
59169;SDS011;52474;52.236;5.114;2022-08-01T03:44:35;14.57;;;8.60;;
59169;SDS011;52474;52.236;5.114;2022-08-01T03:47:05;17.05;;;8.25;;
59169;SDS011;52474;52.236;5.114;2022-08-01T03:49:35;10.63;;;6.68;;
59169;SDS011;52474;52.236;5.114;2022-08-01T03:52:07;11.20;;;5.78;;
59169;SDS011;52474;52.236;5.114;2022-08-01T03:54:35;7.70;;;4.85;;
59169;SDS011;52474;52.236;5.114;2022-08-01T03:57:03;8.90;;;4.97;;
59169;SDS011;52474;52.236;5.114;2022-08-01T03:59:30;7.13;;;4.80;;
59169;SDS011;52474;52.236;5.114;2022-08-01T04:01:59;6.80;;;4.45;;
59169;SDS011;52474;52.236;5.114;2022-08-01T04:04:26;8.23;;;4.65;;
59169;SDS011;52474;52.236;5.114;2022-08-01T04:06:53;7.45;;;4.43;;
59169;SDS011;52474;52.236;5.114;2022-08-01T04:09:20;8.30;;;4.30;;
59169;SDS011;52474;52.236;5.114;2022-08-01T04:11:47;7.50;;;4.80;;
59169;SDS011;52474;52.236;5.114;2022-08-01T04:14:13;7.93;;;5.22;;
59169;SDS011;52474;52.236;5.114;2022-08-01T04:16:39;6.25;;;4.72;;
59169;SDS011;52474;52.236;5.114;2022-08-01T04:19:05;9.65;;;4.78;;
59169;SDS011;52474;52.236;5.114;2022-08-01T04:21:34;8.15;;;5.00;;
59169;SDS011;52474;52.236;5.114;2022-08-01T04:24:03;7.95;;;4.95;;
59169;SDS011;52474;52.236;5.114;2022-08-01T04:26:34;7.30;;;3.78;;
59169;SDS011;52474;52.236;5.114;2022-08-01T04:29:02;5.65;;;3.45;;
59169;SDS011;52474;52.236;5.114;2022-08-01T04:31:31;4.15;;;2.78;;
59169;SDS011;52474;52.236;5.114;2022-08-01T04:33:58;4.95;;;3.28;;
59169;SDS011;52474;52.236;5.114;2022-08-01T04:36:27;5.60;;;3.50;;
59169;SDS011;52474;52.236;5.114;2022-08-01T04:38:58;6.45;;;4.07;;
59169;SDS011;52474;52.236;5.114;2022-08-01T04:41:25;8.18;;;3.50;;
59169;SDS011;52474;52.236;5.114;2022-08-01T04:43:52;5.07;;;3.33;;
59169;SDS011;52474;52.236;5.114;2022-08-01T04:46:19;6.10;;;3.53;;
59169;SDS011;52474;52.236;5.114;2022-08-01T04:48:45;10.57;;;4.35;;
59169;SDS011;52474;52.236;5.114;2022-08-01T04:51:13;10.98;;;4.55;;
59169;SDS011;52474;52.236;5.114;2022-08-01T04:53:43;8.70;;;3.58;;
59169;SDS011;52474;52.236;5.114;2022-08-01T04:56:11;9.48;;;4.63;;
59169;SDS011;52474;52.236;5.114;2022-08-01T04:58:41;6.47;;;3.90;;
59169;SDS011;52474;52.236;5.114;2022-08-01T05:01:08;15.52;;;4.82;;
59169;SDS011;52474;52.236;5.114;2022-08-01T05:03:35;9.73;;;4.80;;
59169;SDS011;52474;52.236;5.114;2022-08-01T05:06:01;9.55;;;4.65;;
59169;SDS011;52474;52.236;5.114;2022-08-01T05:08:27;10.60;;;4.72;;
59169;SDS011;52474;52.236;5.114;2022-08-01T05:10:52;8.48;;;4.80;;
59169;SDS011;52474;52.236;5.114;2022-08-01T05:13:18;13.60;;;5.50;;
59169;SDS011;52474;52.236;5.114;2022-08-01T05:15:44;6.55;;;4.38;;
59169;SDS011;52474;52.236;5.114;2022-08-01T05:18:10;12.18;;;5.28;;
59169;SDS011;52474;52.236;5.114;2022-08-01T05:20:36;9.90;;;5.45;;
59169;SDS011;52474;52.236;5.114;2022-08-01T05:23:03;8.32;;;5.15;;
59169;SDS011;52474;52.236;5.114;2022-08-01T05:25:30;11.32;;;5.25;;
59169;SDS011;52474;52.236;5.114;2022-08-01T05:27:56;14.43;;;5.75;;
59169;SDS011;52474;52.236;5.114;2022-08-01T05:30:21;13.05;;;6.35;;
59169;SDS011;52474;52.236;5.114;2022-08-01T05:32:47;13.48;;;6.57;;
59169;SDS011;52474;52.236;5.114;2022-08-01T05:35:13;12.65;;;6.50;;
59169;SDS011;52474;52.236;5.114;2022-08-01T05:37:38;13.27;;;6.43;;
59169;SDS011;52474;52.236;5.114;2022-08-01T05:40:05;10.88;;;6.78;;
59169;SDS011;52474;52.236;5.114;2022-08-01T05:42:31;11.70;;;6.18;;
59169;SDS011;52474;52.236;5.114;2022-08-01T05:44:56;13.20;;;6.70;;
59169;SDS011;52474;52.236;5.114;2022-08-01T05:47:22;12.43;;;6.72;;
59169;SDS011;52474;52.236;5.114;2022-08-01T05:49:48;16.65;;;7.03;;
59169;SDS011;52474;52.236;5.114;2022-08-01T05:52:14;15.60;;;6.85;;
59169;SDS011;52474;52.236;5.114;2022-08-01T05:54:40;17.52;;;6.35;;
59169;SDS011;52474;52.236;5.114;2022-08-01T05:57:05;20.10;;;6.40;;
59169;SDS011;52474;52.236;5.114;2022-08-01T05:59:31;16.98;;;6.25;;
59169;SDS011;52474;52.236;5.114;2022-08-01T06:01:57;16.90;;;5.90;;
59169;SDS011;52474;52.236;5.114;2022-08-01T06:04:23;15.27;;;6.75;;
59169;SDS011;52474;52.236;5.114;2022-08-01T06:06:48;17.60;;;6.63;;
59169;SDS011;52474;52.236;5.114;2022-08-01T06:09:14;19.08;;;6.22;;
59169;SDS011;52474;52.236;5.114;2022-08-01T06:11:42;15.93;;;5.75;;
59169;SDS011;52474;52.236;5.114;2022-08-01T06:14:08;17.63;;;5.32;;
59169;SDS011;52474;52.236;5.114;2022-08-01T06:16:34;17.83;;;5.75;;
59169;SDS011;52474;52.236;5.114;2022-08-01T06:19:00;20.98;;;6.00;;
59169;SDS011;52474;52.236;5.114;2022-08-01T06:21:26;16.50;;;6.30;;
59169;SDS011;52474;52.236;5.114;2022-08-01T06:23:52;19.30;;;6.13;;
59169;SDS011;52474;52.236;5.114;2022-08-01T06:26:18;18.38;;;5.97;;
59169;SDS011;52474;52.236;5.114;2022-08-01T06:28:45;18.58;;;6.00;;
59169;SDS011;52474;52.236;5.114;2022-08-01T06:31:14;21.67;;;7.10;;
59169;SDS011;52474;52.236;5.114;2022-08-01T06:33:40;16.10;;;5.40;;
59169;SDS011;52474;52.236;5.114;2022-08-01T06:36:06;24.40;;;5.47;;
59169;SDS011;52474;52.236;5.114;2022-08-01T06:38:32;17.70;;;4.53;;
59169;SDS011;52474;52.236;5.114;2022-08-01T06:40:58;16.30;;;5.13;;
59169;SDS011;52474;52.236;5.114;2022-08-01T06:43:24;18.10;;;4.90;;
59169;SDS011;52474;52.236;5.114;2022-08-01T06:45:50;21.20;;;5.03;;
59169;SDS011;52474;52.236;5.114;2022-08-01T06:48:16;16.88;;;4.40;;
59169;SDS011;52474;52.236;5.114;2022-08-01T06:50:41;11.82;;;3.70;;
59169;SDS011;52474;52.236;5.114;2022-08-01T06:53:07;18.00;;;3.95;;
59169;SDS011;52474;52.236;5.114;2022-08-01T06:55:33;18.38;;;4.28;;
59169;SDS011;52474;52.236;5.114;2022-08-01T06:57:59;16.13;;;3.72;;
59169;SDS011;52474;52.236;5.114;2022-08-01T07:00:25;12.90;;;3.42;;
59169;SDS011;52474;52.236;5.114;2022-08-01T07:02:52;14.18;;;3.50;;
59169;SDS011;52474;52.236;5.114;2022-08-01T07:05:20;16.13;;;3.40;;
59169;SDS011;52474;52.236;5.114;2022-08-01T07:07:46;11.15;;;3.47;;
59169;SDS011;52474;52.236;5.114;2022-08-01T07:10:12;13.68;;;3.00;;
59169;SDS011;52474;52.236;5.114;2022-08-01T07:12:38;8.23;;;2.72;;
59169;SDS011;52474;52.236;5.114;2022-08-01T07:15:06;10.48;;;3.05;;
59169;SDS011;52474;52.236;5.114;2022-08-01T07:17:37;11.93;;;2.80;;
59169;SDS011;52474;52.236;5.114;2022-08-01T07:20:07;10.65;;;2.78;;
59169;SDS011;52474;52.236;5.114;2022-08-01T07:22:35;11.77;;;3.00;;
59169;SDS011;52474;52.236;5.114;2022-08-01T07:25:02;11.85;;;2.63;;
59169;SDS011;52474;52.236;5.114;2022-08-01T07:27:29;7.07;;;2.55;;
59169;SDS011;52474;52.236;5.114;2022-08-01T07:29:56;11.18;;;2.60;;
59169;SDS011;52474;52.236;5.114;2022-08-01T07:32:21;11.35;;;2.90;;
59169;SDS011;52474;52.236;5.114;2022-08-01T07:34:47;13.77;;;2.85;;
59169;SDS011;52474;52.236;5.114;2022-08-01T07:37:13;11.27;;;3.70;;
59169;SDS011;52474;52.236;5.114;2022-08-01T07:39:39;11.18;;;2.92;;
59169;SDS011;52474;52.236;5.114;2022-08-01T07:42:05;67.60;;;6.72;;
59169;SDS011;52474;52.236;5.114;2022-08-01T07:44:31;12.25;;;2.63;;
59169;SDS011;52474;52.236;5.114;2022-08-01T07:46:57;17.85;;;3.58;;
59169;SDS011;52474;52.236;5.114;2022-08-01T07:49:23;10.80;;;2.97;;
59169;SDS011;52474;52.236;5.114;2022-08-01T07:51:49;10.18;;;2.75;;
59169;SDS011;52474;52.236;5.114;2022-08-01T07:54:14;11.45;;;2.60;;
59169;SDS011;52474;52.236;5.114;2022-08-01T07:56:40;11.20;;;2.30;;
59169;SDS011;52474;52.236;5.114;2022-08-01T07:59:06;14.13;;;2.60;;
59169;SDS011;52474;52.236;5.114;2022-08-01T08:01:32;10.45;;;2.35;;
59169;SDS011;52474;52.236;5.114;2022-08-01T08:03:58;10.70;;;2.80;;
59169;SDS011;52474;52.236;5.114;2022-08-01T08:06:24;10.95;;;2.15;;
59169;SDS011;52474;52.236;5.114;2022-08-01T08:08:49;7.50;;;2.67;;
59169;SDS011;52474;52.236;5.114;2022-08-01T08:11:16;8.32;;;2.03;;
59169;SDS011;52474;52.236;5.114;2022-08-01T08:13:41;11.65;;;2.38;;
59169;SDS011;52474;52.236;5.114;2022-08-01T08:16:07;9.82;;;2.28;;
59169;SDS011;52474;52.236;5.114;2022-08-01T08:18:32;9.40;;;2.47;;
59169;SDS011;52474;52.236;5.114;2022-08-01T08:20:58;7.97;;;2.33;;
59169;SDS011;52474;52.236;5.114;2022-08-01T08:23:24;11.10;;;2.22;;
59169;SDS011;52474;52.236;5.114;2022-08-01T08:26:09;8.18;;;2.00;;
59169;SDS011;52474;52.236;5.114;2022-08-01T08:28:36;10.13;;;2.35;;
59169;SDS011;52474;52.236;5.114;2022-08-01T08:31:02;12.75;;;3.28;;
59169;SDS011;52474;52.236;5.114;2022-08-01T08:33:28;10.18;;;2.28;;
59169;SDS011;52474;52.236;5.114;2022-08-01T08:35:53;12.27;;;2.30;;
59169;SDS011;52474;52.236;5.114;2022-08-01T08:38:20;9.43;;;2.35;;
59169;SDS011;52474;52.236;5.114;2022-08-01T08:40:45;11.77;;;2.20;;
59169;SDS011;52474;52.236;5.114;2022-08-01T08:43:12;10.80;;;2.28;;
59169;SDS011;52474;52.236;5.114;2022-08-01T08:45:38;8.15;;;2.00;;
59169;SDS011;52474;52.236;5.114;2022-08-01T08:48:05;7.55;;;2.08;;
59169;SDS011;52474;52.236;5.114;2022-08-01T08:50:31;9.52;;;2.13;;
59169;SDS011;52474;52.236;5.114;2022-08-01T08:52:58;7.55;;;2.22;;
59169;SDS011;52474;52.236;5.114;2022-08-01T08:55:26;11.40;;;2.53;;
59169;SDS011;52474;52.236;5.114;2022-08-01T08:57:53;10.02;;;2.40;;
59169;SDS011;52474;52.236;5.114;2022-08-01T09:00:20;8.93;;;2.60;;
59169;SDS011;52474;52.236;5.114;2022-08-01T09:02:46;7.35;;;1.92;;
59169;SDS011;52474;52.236;5.114;2022-08-01T09:05:14;10.85;;;2.40;;
59169;SDS011;52474;52.236;5.114;2022-08-01T09:07:40;7.50;;;2.22;;
59169;SDS011;52474;52.236;5.114;2022-08-01T09:10:07;10.13;;;2.30;;
59169;SDS011;52474;52.236;5.114;2022-08-01T09:12:34;9.90;;;2.40;;
59169;SDS011;52474;52.236;5.114;2022-08-01T09:15:02;13.30;;;2.92;;
59169;SDS011;52474;52.236;5.114;2022-08-01T09:17:27;9.13;;;2.05;;
59169;SDS011;52474;52.236;5.114;2022-08-01T09:20:04;7.78;;;1.75;;
59169;SDS011;52474;52.236;5.114;2022-08-01T09:22:33;12.93;;;2.53;;
59169;SDS011;52474;52.236;5.114;2022-08-01T09:25:04;10.68;;;2.47;;
59169;SDS011;52474;52.236;5.114;2022-08-01T09:27:30;8.68;;;2.17;;
59169;SDS011;52474;52.236;5.114;2022-08-01T09:30:06;9.85;;;2.38;;
59169;SDS011;52474;52.236;5.114;2022-08-01T09:35:24;8.73;;;1.92;;
59169;SDS011;52474;52.236;5.114;2022-08-01T09:43:27;11.05;;;2.50;;
59169;SDS011;52474;52.236;5.114;2022-08-01T09:45:55;7.22;;;2.03;;
59169;SDS011;52474;52.236;5.114;2022-08-01T09:48:21;7.88;;;1.88;;
59169;SDS011;52474;52.236;5.114;2022-08-01T09:50:50;8.65;;;2.10;;
59169;SDS011;52474;52.236;5.114;2022-08-01T09:53:18;7.85;;;2.03;;
59169;SDS011;52474;52.236;5.114;2022-08-01T09:55:45;11.32;;;2.58;;
59169;SDS011;52474;52.236;5.114;2022-08-01T09:58:11;10.18;;;2.03;;
59169;SDS011;52474;52.236;5.114;2022-08-01T10:00:38;9.63;;;1.83;;
59169;SDS011;52474;52.236;5.114;2022-08-01T10:03:24;12.45;;;2.25;;
59169;SDS011;52474;52.236;5.114;2022-08-01T10:05:51;7.55;;;2.20;;
59169;SDS011;52474;52.236;5.114;2022-08-01T10:08:18;7.43;;;2.33;;
59169;SDS011;52474;52.236;5.114;2022-08-01T10:11:09;7.65;;;1.80;;
59169;SDS011;52474;52.236;5.114;2022-08-01T10:13:34;8.77;;;2.67;;
59169;SDS011;52474;52.236;5.114;2022-08-01T10:16:00;10.07;;;2.25;;
59169;SDS011;52474;52.236;5.114;2022-08-01T10:18:28;8.40;;;2.00;;
59169;SDS011;52474;52.236;5.114;2022-08-01T10:20:56;9.95;;;2.05;;
59169;SDS011;52474;52.236;5.114;2022-08-01T10:23:27;7.60;;;1.90;;
59169;SDS011;52474;52.236;5.114;2022-08-01T10:25:55;8.80;;;2.15;;
59169;SDS011;52474;52.236;5.114;2022-08-01T10:28:24;11.30;;;2.55;;
59169;SDS011;52474;52.236;5.114;2022-08-01T10:30:51;9.15;;;2.03;;
59169;SDS011;52474;52.236;5.114;2022-08-01T10:33:18;8.77;;;2.20;;
59169;SDS011;52474;52.236;5.114;2022-08-01T10:35:46;5.85;;;1.77;;
59169;SDS011;52474;52.236;5.114;2022-08-01T10:38:15;9.50;;;1.85;;
59169;SDS011;52474;52.236;5.114;2022-08-01T10:40:42;9.35;;;2.45;;
59169;SDS011;52474;52.236;5.114;2022-08-01T10:43:12;7.90;;;2.00;;
59169;SDS011;52474;52.236;5.114;2022-08-01T10:45:41;8.88;;;2.28;;
59169;SDS011;52474;52.236;5.114;2022-08-01T10:48:27;10.15;;;2.10;;
59169;SDS011;52474;52.236;5.114;2022-08-01T10:51:00;5.68;;;1.60;;
59169;SDS011;52474;52.236;5.114;2022-08-01T10:53:29;5.15;;;1.48;;
59169;SDS011;52474;52.236;5.114;2022-08-01T10:56:04;6.70;;;1.33;;
59169;SDS011;52474;52.236;5.114;2022-08-01T10:58:33;5.93;;;1.85;;
59169;SDS011;52474;52.236;5.114;2022-08-01T11:09:05;5.88;;;1.73;;
59169;SDS011;52474;52.236;5.114;2022-08-01T11:12:01;4.93;;;1.30;;
59169;SDS011;52474;52.236;5.114;2022-08-01T11:14:33;7.95;;;2.08;;
59169;SDS011;52474;52.236;5.114;2022-08-01T11:17:42;7.88;;;1.60;;
59169;SDS011;52474;52.236;5.114;2022-08-01T11:30:41;5.63;;;1.60;;
59169;SDS011;52474;52.236;5.114;2022-08-01T11:33:15;6.82;;;1.30;;
59169;SDS011;52474;52.236;5.114;2022-08-01T11:41:10;7.90;;;1.73;;
59169;SDS011;52474;52.236;5.114;2022-08-01T11:49:31;7.63;;;1.58;;
59169;SDS011;52474;52.236;5.114;2022-08-01T11:52:09;7.22;;;2.03;;
59169;SDS011;52474;52.236;5.114;2022-08-01T11:54:44;6.78;;;1.98;;
59169;SDS011;52474;52.236;5.114;2022-08-01T11:57:13;7.10;;;1.80;;
59169;SDS011;52474;52.236;5.114;2022-08-01T11:59:51;6.88;;;1.90;;
59169;SDS011;52474;52.236;5.114;2022-08-01T12:02:20;7.70;;;1.53;;
59169;SDS011;52474;52.236;5.114;2022-08-01T12:04:56;5.43;;;1.60;;
59169;SDS011;52474;52.236;5.114;2022-08-01T12:07:24;5.05;;;1.50;;
59169;SDS011;52474;52.236;5.114;2022-08-01T12:09:56;4.75;;;1.30;;
59169;SDS011;52474;52.236;5.114;2022-08-01T12:12:28;4.63;;;1.85;;
59169;SDS011;52474;52.236;5.114;2022-08-01T12:14:57;5.88;;;1.73;;
59169;SDS011;52474;52.236;5.114;2022-08-01T12:17:35;4.88;;;1.48;;
59169;SDS011;52474;52.236;5.114;2022-08-01T12:20:14;6.50;;;1.40;;
59169;SDS011;52474;52.236;5.114;2022-08-01T12:22:42;5.18;;;1.52;;
59169;SDS011;52474;52.236;5.114;2022-08-01T12:25:13;3.25;;;1.30;;
59169;SDS011;52474;52.236;5.114;2022-08-01T12:27:40;5.75;;;1.52;;
59169;SDS011;52474;52.236;5.114;2022-08-01T12:30:09;3.78;;;1.30;;
59169;SDS011;52474;52.236;5.114;2022-08-01T12:32:38;5.80;;;1.20;;
59169;SDS011;52474;52.236;5.114;2022-08-01T12:37:38;3.40;;;1.20;;
59169;SDS011;52474;52.236;5.114;2022-08-01T12:42:51;4.57;;;1.20;;
59169;SDS011;52474;52.236;5.114;2022-08-01T12:45:25;2.33;;;1.10;;
59169;SDS011;52474;52.236;5.114;2022-08-01T12:47:53;3.83;;;1.73;;
59169;SDS011;52474;52.236;5.114;2022-08-01T12:50:21;4.15;;;1.30;;
59169;SDS011;52474;52.236;5.114;2022-08-01T12:52:49;3.83;;;1.20;;
59169;SDS011;52474;52.236;5.114;2022-08-01T12:55:22;3.60;;;1.10;;
59169;SDS011;52474;52.236;5.114;2022-08-01T12:58:08;3.88;;;1.30;;
59169;SDS011;52474;52.236;5.114;2022-08-01T13:00:38;5.70;;;1.27;;
59169;SDS011;52474;52.236;5.114;2022-08-01T13:08:16;5.60;;;1.67;;
59169;SDS011;52474;52.236;5.114;2022-08-01T13:10:46;5.43;;;1.52;;
59169;SDS011;52474;52.236;5.114;2022-08-01T13:13:13;5.07;;;1.30;;
59169;SDS011;52474;52.236;5.114;2022-08-01T13:15:41;6.05;;;1.40;;
59169;SDS011;52474;52.236;5.114;2022-08-01T13:21:12;4.47;;;1.20;;
59169;SDS011;52474;52.236;5.114;2022-08-01T13:23:41;5.75;;;1.38;;
59169;SDS011;52474;52.236;5.114;2022-08-01T13:29:06;5.93;;;1.40;;
59169;SDS011;52474;52.236;5.114;2022-08-01T13:31:34;4.90;;;1.40;;
59169;SDS011;52474;52.236;5.114;2022-08-01T13:34:00;4.40;;;1.42;;
59169;SDS011;52474;52.236;5.114;2022-08-01T13:36:26;4.32;;;1.20;;
59169;SDS011;52474;52.236;5.114;2022-08-01T13:38:54;6.90;;;1.60;;
59169;SDS011;52474;52.236;5.114;2022-08-01T13:41:39;4.63;;;1.58;;
59169;SDS011;52474;52.236;5.114;2022-08-01T13:44:05;7.20;;;1.60;;
59169;SDS011;52474;52.236;5.114;2022-08-01T13:46:31;6.18;;;1.75;;
59169;SDS011;52474;52.236;5.114;2022-08-01T13:48:57;8.75;;;2.35;;
59169;SDS011;52474;52.236;5.114;2022-08-01T13:51:23;6.40;;;1.60;;
59169;SDS011;52474;52.236;5.114;2022-08-01T13:53:49;7.88;;;1.65;;
59169;SDS011;52474;52.236;5.114;2022-08-01T13:56:15;4.93;;;1.35;;
59169;SDS011;52474;52.236;5.114;2022-08-01T13:58:43;6.05;;;1.90;;
59169;SDS011;52474;52.236;5.114;2022-08-01T14:01:09;6.93;;;1.52;;
59169;SDS011;52474;52.236;5.114;2022-08-01T14:03:34;6.22;;;1.60;;
59169;SDS011;52474;52.236;5.114;2022-08-01T14:06:01;5.38;;;1.80;;
59169;SDS011;52474;52.236;5.114;2022-08-01T14:08:27;6.43;;;1.73;;
59169;SDS011;52474;52.236;5.114;2022-08-01T14:10:53;9.68;;;1.95;;
59169;SDS011;52474;52.236;5.114;2022-08-01T14:13:22;5.20;;;1.52;;
59169;SDS011;52474;52.236;5.114;2022-08-01T14:15:49;4.90;;;1.50;;
59169;SDS011;52474;52.236;5.114;2022-08-01T14:18:15;2.90;;;1.35;;
59169;SDS011;52474;52.236;5.114;2022-08-01T14:20:41;3.67;;;1.60;;
59169;SDS011;52474;52.236;5.114;2022-08-01T14:23:08;3.53;;;1.58;;
59169;SDS011;52474;52.236;5.114;2022-08-01T14:25:35;6.35;;;1.58;;
59169;SDS011;52474;52.236;5.114;2022-08-01T14:28:05;5.55;;;1.50;;
59169;SDS011;52474;52.236;5.114;2022-08-01T14:30:31;5.30;;;1.67;;
59169;SDS011;52474;52.236;5.114;2022-08-01T14:32:58;6.35;;;1.50;;
59169;SDS011;52474;52.236;5.114;2022-08-01T14:35:24;7.68;;;1.98;;
59169;SDS011;52474;52.236;5.114;2022-08-01T14:37:51;7.22;;;1.52;;
59169;SDS011;52474;52.236;5.114;2022-08-01T14:40:17;5.60;;;1.58;;
59169;SDS011;52474;52.236;5.114;2022-08-01T14:42:43;6.68;;;1.50;;
59169;SDS011;52474;52.236;5.114;2022-08-01T14:45:12;5.85;;;1.50;;
59169;SDS011;52474;52.236;5.114;2022-08-01T14:47:39;4.43;;;1.48;;
59169;SDS011;52474;52.236;5.114;2022-08-01T14:50:08;6.70;;;1.55;;
59169;SDS011;52474;52.236;5.114;2022-08-01T14:52:36;10.13;;;1.73;;
59169;SDS011;52474;52.236;5.114;2022-08-01T14:55:03;9.90;;;2.15;;
59169;SDS011;52474;52.236;5.114;2022-08-01T14:57:31;5.85;;;1.40;;
59169;SDS011;52474;52.236;5.114;2022-08-01T14:59:58;4.72;;;1.50;;
59169;SDS011;52474;52.236;5.114;2022-08-01T15:02:23;8.35;;;1.48;;
59169;SDS011;52474;52.236;5.114;2022-08-01T15:04:49;4.47;;;1.38;;
59169;SDS011;52474;52.236;5.114;2022-08-01T15:07:16;2.80;;;1.10;;
59169;SDS011;52474;52.236;5.114;2022-08-01T15:09:42;4.97;;;1.40;;
59169;SDS011;52474;52.236;5.114;2022-08-01T15:12:09;5.13;;;1.40;;
59169;SDS011;52474;52.236;5.114;2022-08-01T15:14:35;3.63;;;1.30;;
59169;SDS011;52474;52.236;5.114;2022-08-01T15:17:17;2.95;;;1.20;;
59169;SDS011;52474;52.236;5.114;2022-08-01T15:19:45;6.95;;;1.35;;
59169;SDS011;52474;52.236;5.114;2022-08-01T15:22:12;4.28;;;1.35;;
59169;SDS011;52474;52.236;5.114;2022-08-01T15:24:38;5.80;;;1.60;;
59169;SDS011;52474;52.236;5.114;2022-08-01T15:27:04;6.88;;;1.65;;
59169;SDS011;52474;52.236;5.114;2022-08-01T15:29:31;7.68;;;1.73;;
59169;SDS011;52474;52.236;5.114;2022-08-01T15:31:58;4.78;;;1.40;;
59169;SDS011;52474;52.236;5.114;2022-08-01T15:34:24;4.70;;;1.40;;
59169;SDS011;52474;52.236;5.114;2022-08-01T15:36:50;9.48;;;2.35;;
59169;SDS011;52474;52.236;5.114;2022-08-01T15:39:16;6.68;;;1.63;;
59169;SDS011;52474;52.236;5.114;2022-08-01T15:41:43;7.38;;;1.85;;
59169;SDS011;52474;52.236;5.114;2022-08-01T15:44:09;5.00;;;1.88;;
59169;SDS011;52474;52.236;5.114;2022-08-01T15:46:35;7.03;;;1.88;;
59169;SDS011;52474;52.236;5.114;2022-08-01T15:49:02;5.28;;;1.38;;
59169;SDS011;52474;52.236;5.114;2022-08-01T15:51:29;4.25;;;1.70;;
59169;SDS011;52474;52.236;5.114;2022-08-01T15:53:56;6.78;;;1.52;;
59169;SDS011;52474;52.236;5.114;2022-08-01T15:56:21;6.88;;;1.95;;
59169;SDS011;52474;52.236;5.114;2022-08-01T15:58:48;7.47;;;1.65;;
59169;SDS011;52474;52.236;5.114;2022-08-01T16:01:17;10.60;;;1.75;;